LDSP METAR and TAF | Updated Today

LDSP METAR

Split Airport

Observation time: 22 min. ago

LDSP 052000Z 05011G22KT 020V120 CAVOK 01/M12 Q1031 NOSIG

Need help? Read our tutorial on how to read METARs or read the parsed version below.

Split Airport (LDSP) METAR

  • Weather conditions on Sun, 05 Feb 2023 20:00:00 +0000 (22 min. ago):
  • Present conditions: Dry
  • Clouds: Clear skies
  • Visibility: Greater than 10 km
  • Wind: 50 degrees at 11 knots
  • Temperature: 1 celsius
  • Dew point: -12 celsius
  • Pressure: 1031 millibars
  • Remarks: None


Useful to know...

LDSP TAF

Split Airport

TAF LDSP 051725Z 0518/0618 03015G25KT CAVOK TX05/0612Z TNM01/0605Z PROB40 TEMPO 0518/0609 02025G35KT BECMG 0608/0610 05012KT
Observation time: 2:57 hr. ago
Need help? Read our tutorial on how to read TAFs or read the parsed version below.

Parsed version of TAF for Split Airport (LDSP)

  • From 05 February at 18:00 UTC, to day 06 of the month at 18:00 UTC
  • Visibility: Greater than 10 km
  • Wind: 30 degrees at 15
  • Expected to arise temporarily, from 05 February at 18:00 UTC, to day 06 of the month at 09:00 UTC
    Probability of 40%
  • Wind: 20 degrees at 25
  • Expected to arise soon, from 06 February at 08:00 UTC, to day 06 of the month at 10:00 UTC
  • Wind: 50 degrees at 12